Strona główna
METAR-TAF:

METAR-TAF

Lotnisko :

Port lotniczy Akita

Akita, Japonia

Szerokość geograficzna: 39-37N, Długość geograficzna: 140-13E, wysokość: 93 m

Aktualna obserwacja pogody

Raport powstał 51 minut temu, godzina 10:00 UTC
Wiatr 1 kt z kierunków zmiennych
Temperatura 24°C
Wilgotność 61%
Ciśnienie 1011 hPa
Widzialność 10 km lub więcej
Mało chmury na wysokości 2500 ft
Rozproszone chmury na wysokości 12000 ft
Przerywane chmury na wysokości 18000 ft

METAR: RJSK 201000Z VRB01KT 9999 FEW025 SCT120 BKN180 24/16 Q1011

czas: 19:51 (10:51 UTC)

Prognoza

Raport powstał 5 godziny i 44 minut temu, godzina 05:07 UTC
Prognoza ważna od 20 godzina 06 UTC do 21 godzina 12 UTC
Wiatr 4 kt od zachód
Widzialność 10 km lub więcej
Mało chmury na wysokości 3000 ft
Stopniowe zmiany
od 20 godzina 09 UTC do 20 godzina 11 UTC
Wiatr 7 kt od południowy wschód

TAF: RJSK 200507Z 2006/2112 28004KT 9999 FEW030 BECMG 2009/2011 13007KT

Obserwacja i prognoza pogody dla ponad 4000 lotnisk (raport METAR i TAF).

Dostępne stacje oznaczono żółtymi i czerwonymi punktami na mapie.

Najedź kursorem aby zobaczyć nazwę stacji.

Kliknij aby zobaczyć obserwacje i prognozy pogody.

Aby zmienić mapę: kliknij na zielony przycisk z czarnym krzyżykiem, aby powiększyć; na zielony przycisk z myślnikiem, aby pomniejszyć; na zielone strzałki, aby przejść do map sąsiednich.


METAR-TAF: